Time;durP1;ratioP1;P1;durP2;ratioP2;P2;SDS_P1;SDS_P2;PMS_P1;PMS_P2;Temp;Humidity;BMP_temperature;BMP_pressure;BME280_temperature;BME280_humidity;BME280_pressure;Samples;Min_cycle;Max_cycle;Signal;HPM_P1;HPM_P2
2021/01/28 00:01:52;;;;;;;5.10;2.22;;;;;;;;;;4832089;29;20466;-75
2021/01/28 00:04:28;;;;;;;3.78;1.95;;;;;;;;;;4817337;29;20101;-76
2021/01/28 00:06:56;;;;;;;5.68;2.10;;;;;;;;;;4833472;29;20069;-75
2021/01/28 00:09:24;;;;;;;3.05;1.90;;;;;;;;;;4812139;29;20108;-76
2021/01/28 00:11:50;;;;;;;2.97;1.90;;;;;;;;;;4833021;29;20061;-75
2021/01/28 00:14:16;;;;;;;3.50;2.10;;;;;;;;;;4828424;29;20058;-76
2021/01/28 00:16:50;;;;;;;3.03;1.90;;;;;;;;;;4820709;29;20057;-75
2021/01/28 00:19:20;;;;;;;4.70;2.50;;;;;;;;;;4813697;29;20050;-76
2021/01/28 00:21:49;;;;;;;2.85;2.00;;;;;;;;;;4832546;29;20064;-74
2021/01/28 00:24:16;;;;;;;3.10;2.17;;;;;;;;;;4820388;29;20087;-75
2021/01/28 00:26:43;;;;;;;4.50;2.83;;;;;;;;;;4826781;29;20133;-75
2021/01/28 00:29:09;;;;;;;4.25;1.65;;;;;;;;;;4827219;29;20054;-75
2021/01/28 00:31:39;;;;;;;3.15;1.90;;;;;;;;;;4820626;29;20073;-75
2021/01/28 00:34:10;;;;;;;5.53;2.08;;;;;;;;;;4830207;29;20050;-76
2021/01/28 00:36:36;;;;;;;2.83;1.67;;;;;;;;;;4833096;29;20419;-75
2021/01/28 00:39:06;;;;;;;2.78;1.90;;;;;;;;;;4837461;29;20146;-75
2021/01/28 00:41:34;;;;;;;2.42;1.70;;;;;;;;;;4822782;29;20053;-77
2021/01/28 00:44:00;;;;;;;3.88;2.13;;;;;;;;;;4835811;29;20064;-76
2021/01/28 00:46:26;;;;;;;2.70;2.00;;;;;;;;;;4822183;29;20058;-76
2021/01/28 00:48:53;;;;;;;4.90;2.10;;;;;;;;;;4830452;29;20085;-75
2021/01/28 00:51:19;;;;;;;2.55;1.75;;;;;;;;;;4832382;29;20058;-76
2021/01/28 00:53:45;;;;;;;4.55;2.30;;;;;;;;;;4828250;29;20045;-76
2021/01/28 00:56:11;;;;;;;3.15;1.63;;;;;;;;;;4833678;29;20179;-75
2021/01/28 00:58:38;;;;;;;4.40;2.25;;;;;;;;;;4831954;29;20058;-76
2021/01/28 01:01:04;;;;;;;3.10;1.75;;;;;;;;;;4835071;29;20046;-76
2021/01/28 01:03:31;;;;;;;3.28;1.70;;;;;;;;;;4810944;29;20050;-75
2021/01/28 01:05:57;;;;;;;3.95;2.22;;;;;;;;;;4834301;29;20070;-75
2021/01/28 01:08:28;;;;;;;2.08;1.50;;;;;;;;;;4825255;29;20060;-75
2021/01/28 01:10:58;;;;;;;3.72;2.33;;;;;;;;;;4818194;29;20160;-75
2021/01/28 01:13:27;;;;;;;2.72;1.38;;;;;;;;;;4832738;29;20050;-76
2021/01/28 01:15:53;;;;;;;3.67;1.85;;;;;;;;;;4830967;29;20580;-76
2021/01/28 01:18:23;;;;;;;2.72;1.85;;;;;;;;;;4829593;29;20069;-76
2021/01/28 01:20:49;;;;;;;1.83;1.35;;;;;;;;;;4830044;29;20103;-76
2021/01/28 01:23:16;;;;;;;2.78;1.58;;;;;;;;;;4833245;29;20046;-76
2021/01/28 01:31:17;;;;;;;3.20;2.25;;;;;;;;;;4866286;24;20057;-75
2021/01/28 01:33:57;;;;;;;2.22;1.50;;;;;;;;;;4852704;29;20495;-75
2021/01/28 01:36:26;;;;;;;3.50;1.60;;;;;;;;;;4849640;29;20060;-75
2021/01/28 01:38:52;;;;;;;3.40;1.77;;;;;;;;;;4859111;29;20046;-75
2021/01/28 01:41:18;;;;;;;2.67;1.50;;;;;;;;;;4851984;29;20061;-76
2021/01/28 01:43:44;;;;;;;3.45;1.60;;;;;;;;;;4851173;29;20053;-74
2021/01/28 01:46:15;;;;;;;3.17;1.70;;;;;;;;;;4852473;29;20053;-76
2021/01/28 01:48:48;;;;;;;2.33;1.50;;;;;;;;;;4855760;29;20511;-75
2021/01/28 01:51:14;;;;;;;2.08;1.58;;;;;;;;;;4851715;29;20468;-75
2021/01/28 01:53:42;;;;;;;2.55;1.50;;;;;;;;;;4849110;29;20136;-75
2021/01/28 01:56:12;;;;;;;2.33;1.60;;;;;;;;;;4846924;29;20050;-74
2021/01/28 01:58:38;;;;;;;;;;;;;;;;;;4842464;29;20060;-76
2021/01/28 02:01:04;;;;;;;2.65;1.40;;;;;;;;;;4856503;29;19924;-76
2021/01/28 02:03:31;;;;;;;3.35;1.50;;;;;;;;;;4853469;29;20129;-75
2021/01/28 02:09:26;;;;;;;2.70;1.70;;;;;;;;;;4846584;29;20041;-76
2021/01/28 02:11:54;;;;;;;3.83;1.85;;;;;;;;;;4854320;29;20181;-76
2021/01/28 02:14:20;;;;;;;2.47;1.60;;;;;;;;;;4852857;29;20137;-75
2021/01/28 02:16:52;;;;;;;2.10;1.40;;;;;;;;;;4850325;29;20050;-76
2021/01/28 02:19:39;;;;;;;3.10;2.25;;;;;;;;;;4848756;29;20931;-76
2021/01/28 02:22:06;;;;;;;2.80;1.58;;;;;;;;;;4849415;29;20050;-75
2021/01/28 02:24:34;;;;;;;3.92;1.92;;;;;;;;;;4848160;29;20140;-75
2021/01/28 02:27:02;;;;;;;2.63;1.65;;;;;;;;;;4861428;29;20063;-74
2021/01/28 02:29:32;;;;;;;2.58;1.20;;;;;;;;;;4857328;29;20133;-74
2021/01/28 02:31:58;;;;;;;25.00;3.67;;;;;;;;;;4864336;29;20053;-75
2021/01/28 02:34:24;;;;;;;3.35;1.63;;;;;;;;;;4850227;29;20052;-75
2021/01/28 02:36:52;;;;;;;4.93;1.60;;;;;;;;;;4850251;29;20061;-75
2021/01/28 02:39:21;;;;;;;2.83;1.45;;;;;;;;;;4848494;29;20053;-74
2021/01/28 02:41:53;;;;;;;1.92;1.30;;;;;;;;;;4852388;29;20057;-75
2021/01/28 02:44:21;;;;;;;3.83;2.03;;;;;;;;;;4848850;29;20056;-75
2021/01/28 02:46:48;;;;;;;2.38;1.30;;;;;;;;;;4854243;29;20057;-75
2021/01/28 02:49:15;;;;;;;1.98;1.30;;;;;;;;;;4847884;29;20053;-75
2021/01/28 02:51:41;;;;;;;4.97;2.00;;;;;;;;;;4848360;29;20057;-74
2021/01/28 02:54:08;;;;;;;2.17;1.40;;;;;;;;;;4843321;29;20050;-75
2021/01/28 02:56:34;;;;;;;2.88;1.60;;;;;;;;;;4854762;29;20053;-75
2021/01/28 02:59:03;;;;;;;1.77;1.08;;;;;;;;;;4854700;29;20057;-75
2021/01/28 03:01:31;;;;;;;2.38;1.45;;;;;;;;;;4853125;29;20049;-74
2021/01/28 03:03:58;;;;;;;1.67;1.13;;;;;;;;;;4847507;29;20057;-75
2021/01/28 03:06:24;;;;;;;3.47;1.70;;;;;;;;;;4852423;29;20563;-74
2021/01/28 03:08:50;;;;;;;3.88;1.60;;;;;;;;;;4848471;29;20055;-74
2021/01/28 03:11:17;;;;;;;3.08;1.02;;;;;;;;;;4849176;29;20057;-74
2021/01/28 03:13:43;;;;;;;2.45;1.48;;;;;;;;;;4850096;29;20061;-75
2021/01/28 03:16:17;;;;;;;3.00;1.55;;;;;;;;;;4854310;29;20052;-74
2021/01/28 03:18:51;;;;;;;2.88;1.58;;;;;;;;;;4846744;29;20061;-74
2021/01/28 03:21:17;;;;;;;2.92;1.65;;;;;;;;;;4848062;29;20046;-74
2021/01/28 03:23:43;;;;;;;2.03;1.80;;;;;;;;;;4849289;29;20049;-75
2021/01/28 03:26:09;;;;;;;2.40;1.17;;;;;;;;;;4851043;29;20137;-74
2021/01/28 03:28:38;;;;;;;2.85;1.48;;;;;;;;;;4847299;29;20058;-75
2021/01/28 03:31:08;;;;;;;2.30;1.35;;;;;;;;;;4855777;29;20053;-75
2021/01/28 03:33:35;;;;;;;2.03;1.10;;;;;;;;;;4850538;29;20061;-75
2021/01/28 03:36:03;;;;;;;3.58;1.38;;;;;;;;;;4846316;29;20502;-75
2021/01/28 03:38:33;;;;;;;1.90;1.33;;;;;;;;;;4853687;29;20057;-75
2021/01/28 03:40:59;;;;;;;2.20;1.25;;;;;;;;;;4849184;29;20144;-76
2021/01/28 03:43:25;;;;;;;1.33;1.00;;;;;;;;;;4851757;29;20077;-75
2021/01/28 03:45:54;;;;;;;2.22;1.23;;;;;;;;;;4845389;29;20057;-75
2021/01/28 03:48:20;;;;;;;2.38;1.45;;;;;;;;;;4850091;29;20404;-75
2021/01/28 03:50:51;;;;;;;1.88;1.10;;;;;;;;;;4844580;29;20050;-75
2021/01/28 03:53:17;;;;;;;1.85;1.20;;;;;;;;;;4849738;29;20046;-76
2021/01/28 03:55:43;;;;;;;3.55;1.10;;;;;;;;;;4853888;29;20056;-76
2021/01/28 03:58:10;;;;;;;2.15;0.98;;;;;;;;;;4848797;29;20056;-75
2021/01/28 04:00:37;;;;;;;3.60;1.30;;;;;;;;;;4854234;29;20065;-76
2021/01/28 04:03:04;;;;;;;1.70;1.30;;;;;;;;;;4854636;29;20526;-75
2021/01/28 04:05:33;;;;;;;2.38;1.60;;;;;;;;;;4854770;29;20393;-75
2021/01/28 04:07:59;;;;;;;1.60;1.25;;;;;;;;;;4856679;29;20105;-76
2021/01/28 04:10:30;;;;;;;1.10;0.82;;;;;;;;;;4847843;29;20053;-75
2021/01/28 04:12:59;;;;;;;1.90;1.13;;;;;;;;;;4852242;29;20092;-75
2021/01/28 04:15:26;;;;;;;2.17;1.00;;;;;;;;;;4851476;29;20054;-75
2021/01/28 04:17:53;;;;;;;1.70;0.95;;;;;;;;;;4855351;29;20053;-74
2021/01/28 04:20:24;;;;;;;1.77;0.93;;;;;;;;;;4849628;29;20057;-76
2021/01/28 04:22:52;;;;;;;1.60;1.13;;;;;;;;;;4848415;29;20064;-75
2021/01/28 04:25:19;;;;;;;2.22;1.00;;;;;;;;;;4845317;29;20203;-75
2021/01/28 04:27:45;;;;;;;2.03;1.10;;;;;;;;;;4849735;29;20050;-75
2021/01/28 04:30:14;;;;;;;1.45;1.10;;;;;;;;;;4854092;29;20502;-77
2021/01/28 04:32:50;;;;;;;2.17;1.05;;;;;;;;;;4856435;29;20054;-76
2021/01/28 04:35:17;;;;;;;2.35;1.20;;;;;;;;;;4854070;29;20817;-77
2021/01/28 04:37:51;;;;;;;3.67;1.27;;;;;;;;;;4853058;29;20346;-75
2021/01/28 04:40:20;;;;;;;2.40;1.10;;;;;;;;;;4856275;29;20141;-75
2021/01/28 04:42:53;;;;;;;1.60;1.42;;;;;;;;;;4856968;29;20419;-75
2021/01/28 04:45:21;;;;;;;2.33;0.88;;;;;;;;;;4844804;29;20057;-74
2021/01/28 04:47:53;;;;;;;1.23;1.00;;;;;;;;;;4855989;29;20053;-76
2021/01/28 04:50:28;;;;;;;2.70;1.10;;;;;;;;;;4855822;29;20118;-76
2021/01/28 04:52:57;;;;;;;2.28;1.10;;;;;;;;;;4845823;29;20183;-75
2021/01/28 04:55:31;;;;;;;2.42;1.42;;;;;;;;;;4857066;29;20520;-75
2021/01/28 04:57:57;;;;;;;1.40;1.00;;;;;;;;;;4855847;29;20053;-76
2021/01/28 05:00:27;;;;;;;1.63;0.90;;;;;;;;;;4852994;29;20057;-75
2021/01/28 05:02:57;;;;;;;2.22;1.40;;;;;;;;;;4846962;29;20056;-74
2021/01/28 05:05:30;;;;;;;1.48;0.85;;;;;;;;;;4851760;29;20049;-75
2021/01/28 05:07:56;;;;;;;0.50;0.43;;;;;;;;;;4849294;29;20054;-74
2021/01/28 05:10:25;;;;;;;2.15;1.40;;;;;;;;;;4853603;29;20219;-75
2021/01/28 05:12:59;;;;;;;1.30;0.90;;;;;;;;;;4852917;29;20064;-75
2021/01/28 05:15:30;;;;;;;1.65;1.20;;;;;;;;;;4848651;29;20132;-75
2021/01/28 05:17:56;;;;;;;3.20;1.65;;;;;;;;;;4856348;29;20057;-75
2021/01/28 05:20:23;;;;;;;2.35;1.00;;;;;;;;;;4845348;29;20053;-75
2021/01/28 05:23:01;;;;;;;0.98;0.70;;;;;;;;;;4853381;29;20519;-76
2021/01/28 05:25:38;;;;;;;1.88;1.05;;;;;;;;;;4850437;29;20477;-76
2021/01/28 05:28:17;;;;;;;2.22;1.25;;;;;;;;;;4856782;29;20053;-76
2021/01/28 05:30:44;;;;;;;1.55;1.10;;;;;;;;;;4849824;29;20045;-76
2021/01/28 05:33:21;;;;;;;1.70;1.10;;;;;;;;;;4845879;29;20054;-76
2021/01/28 05:36:11;;;;;;;1.95;1.35;;;;;;;;;;4856277;29;20049;-76
2021/01/28 05:38:43;;;;;;;1.58;0.98;;;;;;;;;;4849014;29;20049;-74
2021/01/28 05:41:11;;;;;;;3.08;1.40;;;;;;;;;;4852792;29;20049;-73
2021/01/28 05:43:44;;;;;;;2.13;1.08;;;;;;;;;;4850994;29;20060;-74
2021/01/28 05:46:22;;;;;;;1.73;1.35;;;;;;;;;;4847306;29;20061;-75
2021/01/28 05:49:04;;;;;;;1.77;1.23;;;;;;;;;;4855811;29;20041;-74
2021/01/28 05:51:50;;;;;;;1.70;1.05;;;;;;;;;;4854072;29;20081;-75
2021/01/28 05:54:25;;;;;;;2.13;1.25;;;;;;;;;;4848718;29;20041;-76
2021/01/28 05:56:54;;;;;;;3.13;1.27;;;;;;;;;;4852077;29;20487;-75
2021/01/28 05:59:34;;;;;;;2.13;0.97;;;;;;;;;;4850096;29;20720;-76
2021/01/28 06:02:16;;;;;;;2.13;1.17;;;;;;;;;;4856531;29;20057;-75
2021/01/28 06:05:00;;;;;;;2.15;1.02;;;;;;;;;;4856071;29;20053;-76
2021/01/28 06:07:40;;;;;;;2.72;1.52;;;;;;;;;;4853184;29;20054;-76
2021/01/28 06:10:22;;;;;;;2.22;1.30;;;;;;;;;;4849724;29;20472;-77
2021/01/28 06:13:26;;;;;;;2.30;1.75;;;;;;;;;;4851749;29;20049;-77
2021/01/28 06:16:07;;;;;;;2.95;1.30;;;;;;;;;;4855763;29;20054;-77
2021/01/28 06:18:52;;;;;;;1.65;1.23;;;;;;;;;;4854862;29;20049;-76
2021/01/28 06:21:31;;;;;;;3.50;1.30;;;;;;;;;;4857684;29;20048;-76
2021/01/28 06:24:14;;;;;;;1.55;0.90;;;;;;;;;;4851311;29;20049;-76
2021/01/28 06:27:00;;;;;;;2.13;1.23;;;;;;;;;;4851243;29;20060;-76
2021/01/28 06:29:53;;;;;;;2.97;1.30;;;;;;;;;;4852635;29;20060;-75
2021/01/28 06:32:25;;;;;;;3.25;1.23;;;;;;;;;;4846060;29;20054;-73
2021/01/28 06:35:11;;;;;;;2.22;1.70;;;;;;;;;;4853430;29;20110;-74
2021/01/28 06:38:03;;;;;;;2.05;1.38;;;;;;;;;;4852623;29;20518;-74
2021/01/28 06:40:31;;;;;;;1.80;1.20;;;;;;;;;;4854346;29;20049;-75
2021/01/28 06:43:02;;;;;;;1.35;1.02;;;;;;;;;;4854533;29;20048;-73
2021/01/28 06:45:33;;;;;;;1.63;1.40;;;;;;;;;;4852731;29;20404;-73
2021/01/28 06:48:03;;;;;;;1.83;1.15;;;;;;;;;;4851397;29;20053;-74
2021/01/28 06:50:40;;;;;;;2.30;1.40;;;;;;;;;;4843777;29;20052;-75
2021/01/28 06:53:10;;;;;;;2.25;1.48;;;;;;;;;;4843119;29;20447;-72
2021/01/28 06:55:40;;;;;;;3.22;1.20;;;;;;;;;;4850578;29;20052;-72
2021/01/28 06:58:14;;;;;;;2.22;1.10;;;;;;;;;;4854825;29;20057;-72
2021/01/28 07:00:59;;;;;;;1.85;1.10;;;;;;;;;;4848463;29;20046;-72
2021/01/28 07:03:42;;;;;;;2.05;1.50;;;;;;;;;;4848122;29;20053;-71
2021/01/28 07:06:16;;;;;;;2.10;1.50;;;;;;;;;;4848530;29;20053;-71
2021/01/28 07:09:03;;;;;;;2.45;1.48;;;;;;;;;;4851757;29;20085;-72
2021/01/28 07:11:36;;;;;;;3.17;1.63;;;;;;;;;;4850856;29;20144;-72
2021/01/28 07:14:02;;;;;;;1.52;0.98;;;;;;;;;;4849266;29;20050;-73
2021/01/28 07:16:33;;;;;;;2.97;1.08;;;;;;;;;;4848299;29;20041;-73
2021/01/28 07:19:07;;;;;;;1.55;1.17;;;;;;;;;;4852290;29;20556;-74
2021/01/28 07:21:39;;;;;;;5.80;1.38;;;;;;;;;;4865611;29;20384;-75
2021/01/28 07:24:29;;;;;;;4.93;1.70;;;;;;;;;;4845597;29;20057;-73
2021/01/28 07:27:03;;;;;;;8.57;2.42;;;;;;;;;;4850837;29;20046;-74
2021/01/28 07:29:39;;;;;;;23.10;2.15;;;;;;;;;;4849025;29;20057;-73
2021/01/28 07:32:09;;;;;;;2.83;1.33;;;;;;;;;;4859945;29;20044;-74
2021/01/28 07:34:36;;;;;;;5.00;1.95;;;;;;;;;;4847894;29;20072;-74
2021/01/28 07:37:17;;;;;;;5.65;1.85;;;;;;;;;;4853000;29;20136;-74
2021/01/28 07:39:44;;;;;;;10.13;1.85;;;;;;;;;;4855133;29;20517;-75
2021/01/28 07:42:16;;;;;;;3.53;1.83;;;;;;;;;;4850710;29;20057;-74
2021/01/28 07:44:44;;;;;;;2.63;1.45;;;;;;;;;;4844392;29;20283;-74
2021/01/28 07:47:29;;;;;;;3.30;1.73;;;;;;;;;;4847493;29;20057;-74
2021/01/28 07:50:14;;;;;;;3.97;1.80;;;;;;;;;;4849218;29;20411;-72
2021/01/28 07:52:41;;;;;;;2.95;1.77;;;;;;;;;;4851636;29;20050;-73
2021/01/28 07:55:26;;;;;;;5.65;1.70;;;;;;;;;;4849116;29;20484;-75
2021/01/28 07:57:52;;;;;;;3.38;1.40;;;;;;;;;;4844376;29;20056;-75
2021/01/28 08:00:20;;;;;;;4.05;2.03;;;;;;;;;;4847646;29;20064;-73
2021/01/28 08:03:04;;;;;;;3.08;1.85;;;;;;;;;;4844783;29;20061;-74
2021/01/28 08:05:33;;;;;;;5.05;2.05;;;;;;;;;;4851154;29;20426;-74
2021/01/28 08:08:05;;;;;;;2.53;1.55;;;;;;;;;;4847755;29;20096;-74
2021/01/28 08:10:35;;;;;;;2.13;1.40;;;;;;;;;;4853329;29;20134;-74
2021/01/28 08:13:03;;;;;;;2.42;1.35;;;;;;;;;;4850798;29;20049;-74
2021/01/28 08:15:44;;;;;;;3.85;1.70;;;;;;;;;;4851844;29;20080;-74
2021/01/28 08:18:10;;;;;;;2.25;1.35;;;;;;;;;;4846763;29;20160;-72
2021/01/28 08:20:37;;;;;;;2.10;1.38;;;;;;;;;;4853007;29;20586;-74
2021/01/28 08:23:23;;;;;;;2.28;1.58;;;;;;;;;;4859330;29;20132;-74
2021/01/28 08:25:57;;;;;;;2.33;1.30;;;;;;;;;;4854953;29;20178;-75
2021/01/28 08:28:27;;;;;;;3.45;1.42;;;;;;;;;;4854535;29;20570;-75
2021/01/28 08:31:17;;;;;;;3.58;1.42;;;;;;;;;;4849223;29;20053;-75
2021/01/28 08:33:48;;;;;;;4.05;1.63;;;;;;;;;;4858636;29;20049;-77
2021/01/28 08:36:37;;;;;;;4.97;2.05;;;;;;;;;;4853723;29;20064;-77
2021/01/28 08:39:14;;;;;;;4.28;1.75;;;;;;;;;;4857010;29;20056;-76
2021/01/28 08:41:41;;;;;;;5.70;2.22;;;;;;;;;;4850216;29;20117;-78
2021/01/28 08:44:12;;;;;;;4.32;2.00;;;;;;;;;;4857066;29;20407;-77
2021/01/28 08:46:39;;;;;;;9.07;3.55;;;;;;;;;;4844004;29;20061;-77
2021/01/28 08:49:19;;;;;;;3.35;1.95;;;;;;;;;;4852266;29;20440;-77
2021/01/28 08:52:03;;;;;;;7.72;2.33;;;;;;;;;;4851229;29;20136;-77
2021/01/28 08:54:31;;;;;;;5.95;2.55;;;;;;;;;;4848811;29;20046;-77
2021/01/28 08:56:58;;;;;;;5.25;2.15;;;;;;;;;;4852202;29;20133;-76
2021/01/28 08:59:29;;;;;;;4.70;2.63;;;;;;;;;;4848866;29;20496;-76
2021/01/28 09:01:57;;;;;;;4.13;2.10;;;;;;;;;;4851569;29;20054;-75
2021/01/28 09:04:29;;;;;;;4.38;1.80;;;;;;;;;;4849692;29;20056;-77
2021/01/28 09:07:34;;;;;;;4.30;2.40;;;;;;;;;;4848390;29;20054;-77
2021/01/28 09:10:02;;;;;;;4.80;2.70;;;;;;;;;;4854961;29;20054;-77
2021/01/28 09:12:34;;;;;;;5.45;2.72;;;;;;;;;;4854718;29;20404;-77
2021/01/28 09:15:10;;;;;;;5.45;2.85;;;;;;;;;;4849941;29;20507;-77
2021/01/28 09:17:39;;;;;;;6.25;2.53;;;;;;;;;;4852132;29;20093;-77
2021/01/28 09:20:06;;;;;;;10.25;2.70;;;;;;;;;;4848807;29;20132;-76
2021/01/28 09:22:34;;;;;;;4.03;1.92;;;;;;;;;;4845021;29;20061;-77
2021/01/28 09:25:01;;;;;;;4.63;2.20;;;;;;;;;;4850301;29;20076;-77
2021/01/28 09:27:35;;;;;;;4.43;1.92;;;;;;;;;;4849169;29;20405;-76
2021/01/28 09:30:31;;;;;;;3.20;2.08;;;;;;;;;;4844802;29;20046;-76
2021/01/28 09:32:58;;;;;;;4.60;2.03;;;;;;;;;;4846059;29;20061;-80
2021/01/28 09:35:28;;;;;;;6.13;2.80;;;;;;;;;;4849008;29;20050;-76
2021/01/28 09:38:04;;;;;;;3.38;1.88;;;;;;;;;;4845089;29;20095;-74
2021/01/28 09:40:36;;;;;;;4.22;1.85;;;;;;;;;;4852321;29;20498;-74
2021/01/28 09:43:15;;;;;;;3.80;1.90;;;;;;;;;;4852741;29;20064;-75
2021/01/28 09:45:59;;;;;;;2.33;1.65;;;;;;;;;;4849168;29;20056;-74
2021/01/28 09:48:25;;;;;;;6.35;2.90;;;;;;;;;;4849492;29;20045;-74
2021/01/28 09:50:54;;;;;;;3.17;1.92;;;;;;;;;;4850527;29;20092;-75
2021/01/28 09:53:20;;;;;;;5.25;2.40;;;;;;;;;;4849304;29;20045;-75
2021/01/28 09:55:46;;;;;;;4.75;2.28;;;;;;;;;;4850148;29;20053;-75
2021/01/28 09:58:12;;;;;;;4.18;1.90;;;;;;;;;;4850525;29;20082;-75
2021/01/28 10:00:38;;;;;;;4.60;2.58;;;;;;;;;;4850415;29;20057;-75
2021/01/28 10:03:06;;;;;;;5.10;1.88;;;;;;;;;;4849290;29;20053;-74
2021/01/28 10:05:33;;;;;;;3.30;1.80;;;;;;;;;;4850684;29;20072;-75
2021/01/28 10:08:00;;;;;;;4.18;2.28;;;;;;;;;;4848375;29;20081;-74
2021/01/28 10:10:28;;;;;;;5.13;2.88;;;;;;;;;;4848211;29;20050;-75
2021/01/28 10:12:56;;;;;;;5.20;2.08;;;;;;;;;;4851736;29;20050;-76
2021/01/28 10:15:24;;;;;;;3.42;1.80;;;;;;;;;;4846547;29;20441;-76
2021/01/28 10:17:53;;;;;;;3.72;1.95;;;;;;;;;;4849467;29;20424;-75
2021/01/28 10:20:20;;;;;;;6.45;1.70;;;;;;;;;;4847447;29;20085;-76
2021/01/28 10:22:48;;;;;;;6.60;2.00;;;;;;;;;;4848544;29;20141;-78
2021/01/28 10:25:15;;;;;;;9.15;1.70;;;;;;;;;;4849929;29;20102;-78
2021/01/28 10:27:42;;;;;;;4.68;2.05;;;;;;;;;;4847161;29;20457;-77
2021/01/28 10:30:11;;;;;;;4.60;1.55;;;;;;;;;;4848893;29;20050;-79
2021/01/28 10:32:40;;;;;;;3.25;2.05;;;;;;;;;;4849099;29;20053;-80
2021/01/28 10:35:07;;;;;;;2.88;1.65;;;;;;;;;;4846184;29;20056;-76
2021/01/28 10:37:33;;;;;;;4.20;1.90;;;;;;;;;;4850001;29;20053;-78
2021/01/28 10:40:03;;;;;;;3.67;2.10;;;;;;;;;;4850038;29;20089;-79
2021/01/28 10:42:29;;;;;;;;;;;;;;;;;;4849319;29;20084;-85
2021/01/28 10:44:55;;;;;;;2.85;1.95;;;;;;;;;;4853764;29;19931;-78
2021/01/28 10:47:23;;;;;;;5.97;2.13;;;;;;;;;;4844585;29;20061;-79
2021/01/28 10:50:05;;;;;;;3.22;1.80;;;;;;;;;;4843307;29;20046;-75
2021/01/28 10:52:32;;;;;;;3.63;1.95;;;;;;;;;;4850119;29;20060;-74
2021/01/28 10:54:58;;;;;;;3.63;1.65;;;;;;;;;;4846557;29;21490;-76
2021/01/28 10:57:25;;;;;;;3.25;1.45;;;;;;;;;;4851656;29;20050;-75
2021/01/28 10:59:51;;;;;;;3.78;1.73;;;;;;;;;;4849713;29;20057;-73
2021/01/28 11:02:20;;;;;;;4.85;1.83;;;;;;;;;;4850764;29;20056;-73
2021/01/28 11:04:49;;;;;;;4.53;1.92;;;;;;;;;;4847087;29;20141;-74
2021/01/28 11:07:17;;;;;;;4.40;1.70;;;;;;;;;;4848043;29;20057;-73
2021/01/28 11:09:46;;;;;;;2.85;1.20;;;;;;;;;;4848257;29;20050;-82
2021/01/28 11:12:12;;;;;;;2.08;1.20;;;;;;;;;;4851386;29;20064;-77
2021/01/28 11:14:38;;;;;;;4.03;1.50;;;;;;;;;;4850863;29;20049;-75
2021/01/28 11:17:04;;;;;;;3.13;1.50;;;;;;;;;;4847416;29;20050;-76
2021/01/28 11:19:33;;;;;;;3.38;2.05;;;;;;;;;;4848215;29;20053;-74
2021/01/28 11:22:01;;;;;;;2.97;2.00;;;;;;;;;;4849336;29;20057;-75
2021/01/28 11:24:28;;;;;;;4.40;1.50;;;;;;;;;;4846564;29;20068;-75
2021/01/28 11:26:55;;;;;;;1.95;1.20;;;;;;;;;;4843228;29;20065;-76
2021/01/28 11:29:24;;;;;;;3.67;1.40;;;;;;;;;;4848752;29;20076;-74
2021/01/28 11:31:51;;;;;;;2.53;1.67;;;;;;;;;;4849530;29;20045;-75
2021/01/28 11:34:17;;;;;;;2.45;1.55;;;;;;;;;;4852791;29;20472;-74
2021/01/28 11:36:48;;;;;;;1.92;1.15;;;;;;;;;;4849830;29;20053;-76
2021/01/28 11:39:17;;;;;;;2.65;1.45;;;;;;;;;;4848964;29;20054;-74
2021/01/28 11:41:57;;;;;;;4.25;1.55;;;;;;;;;;4846606;29;20114;-76
2021/01/28 11:44:26;;;;;;;2.57;1.30;;;;;;;;;;4852038;29;20480;-75
2021/01/28 11:46:57;;;;;;;3.20;1.67;;;;;;;;;;4856701;29;20316;-75
2021/01/28 11:49:26;;;;;;;4.63;1.42;;;;;;;;;;4857596;29;20388;-76
2021/01/28 11:51:55;;;;;;;4.63;1.45;;;;;;;;;;4855334;29;20077;-74
2021/01/28 11:54:21;;;;;;;2.90;1.50;;;;;;;;;;4849423;29;20041;-73
2021/01/28 11:56:49;;;;;;;4.20;2.00;;;;;;;;;;4856070;29;20050;-77
2021/01/28 11:59:15;;;;;;;4.63;1.50;;;;;;;;;;4854196;29;20057;-74
2021/01/28 12:01:41;;;;;;;2.28;1.83;;;;;;;;;;4856755;29;20530;-76
2021/01/28 12:04:11;;;;;;;4.10;1.70;;;;;;;;;;4851727;29;20113;-76
2021/01/28 12:06:47;;;;;;;2.20;1.42;;;;;;;;;;4854378;29;20419;-75
2021/01/28 12:09:16;;;;;;;2.83;1.38;;;;;;;;;;4855844;29;20041;-75
2021/01/28 12:11:42;;;;;;;2.33;1.42;;;;;;;;;;4852965;29;20133;-75
2021/01/28 12:14:08;;;;;;;2.70;1.67;;;;;;;;;;4852994;29;20045;-76
2021/01/28 12:16:42;;;;;;;2.15;1.45;;;;;;;;;;4856008;29;20118;-76
2021/01/28 12:19:09;;;;;;;2.55;1.60;;;;;;;;;;4847587;29;20160;-76
2021/01/28 12:21:45;;;;;;;3.13;1.48;;;;;;;;;;4850000;29;20186;-73
2021/01/28 12:24:12;;;;;;;1.85;1.00;;;;;;;;;;4857372;29;20079;-76
2021/01/28 12:26:39;;;;;;;3.85;1.20;;;;;;;;;;4849214;29;20064;-76
2021/01/28 12:29:05;;;;;;;2.65;1.20;;;;;;;;;;4847629;29;20050;-76
2021/01/28 12:43:52;;;;;;;2.25;1.23;;;;;;;;;;4848790;29;20068;-75
2021/01/28 12:46:22;;;;;;;2.38;1.58;;;;;;;;;;4848661;29;20050;-74
2021/01/28 12:48:48;;;;;;;;;;;;;;;;;;4838860;29;20144;-75
2021/01/28 12:51:17;;;;;;;1.80;1.35;;;;;;;;;;4849319;29;20351;-75
2021/01/28 12:53:43;;;;;;;1.88;1.08;;;;;;;;;;4848790;29;20054;-77
2021/01/28 12:56:10;;;;;;;2.67;1.50;;;;;;;;;;4834045;29;20416;-76
2021/01/28 12:58:38;;;;;;;3.67;1.50;;;;;;;;;;4836187;29;20069;-76
2021/01/28 13:01:07;;;;;;;2.65;1.63;;;;;;;;;;4836425;29;20061;-74
2021/01/28 13:03:34;;;;;;;2.42;1.45;;;;;;;;;;4836031;29;20054;-74
2021/01/28 13:06:01;;;;;;;8.77;1.67;;;;;;;;;;4826553;29;20407;-74
2021/01/28 13:08:28;;;;;;;6.63;1.38;;;;;;;;;;4841150;29;20770;-75
2021/01/28 13:10:54;;;;;;;3.90;1.45;;;;;;;;;;4834773;29;20057;-74
2021/01/28 13:13:20;;;;;;;3.20;1.70;;;;;;;;;;4828588;29;20792;-75
2021/01/28 13:15:46;;;;;;;3.78;1.55;;;;;;;;;;4831073;29;20145;-75
2021/01/28 13:18:13;;;;;;;4.18;1.92;;;;;;;;;;4833446;29;21082;-75
2021/01/28 13:20:39;;;;;;;4.00;1.80;;;;;;;;;;4836383;29;20059;-76
2021/01/28 13:23:06;;;;;;;4.60;1.40;;;;;;;;;;4810480;29;20062;-76
2021/01/28 13:25:32;;;;;;;2.30;1.45;;;;;;;;;;4828014;29;20067;-76
2021/01/28 13:27:58;;;;;;;3.30;1.38;;;;;;;;;;4811650;29;20416;-75
2021/01/28 13:30:25;;;;;;;2.15;1.23;;;;;;;;;;4839452;29;20050;-75
2021/01/28 13:32:53;;;;;;;3.22;1.70;;;;;;;;;;4835949;29;20046;-75
2021/01/28 13:35:21;;;;;;;2.80;1.58;;;;;;;;;;4839311;29;20419;-74
2021/01/28 13:37:48;;;;;;;3.70;1.63;;;;;;;;;;4836091;29;20098;-74
2021/01/28 13:40:15;;;;;;;2.05;1.40;;;;;;;;;;4837663;29;20505;-78
2021/01/28 13:42:42;;;;;;;3.72;1.50;;;;;;;;;;4836716;29;20204;-78
2021/01/28 13:45:11;;;;;;;3.67;1.70;;;;;;;;;;4837098;29;20154;-78
2021/01/28 13:47:38;;;;;;;2.33;1.30;;;;;;;;;;4835146;29;20057;-77
2021/01/28 13:50:05;;;;;;;3.92;1.58;;;;;;;;;;4834931;29;20396;-78
2021/01/28 13:52:33;;;;;;;3.05;1.70;;;;;;;;;;4836921;29;20067;-77
2021/01/28 13:54:59;;;;;;;3.25;1.60;;;;;;;;;;4835822;29;20060;-77
2021/01/28 13:57:25;;;;;;;2.53;1.48;;;;;;;;;;4836678;29;20056;-78
2021/01/28 13:59:55;;;;;;;3.40;1.83;;;;;;;;;;4835874;29;20192;-77
2021/01/28 14:02:21;;;;;;;1.88;1.33;;;;;;;;;;4832873;29;20053;-78
2021/01/28 14:04:50;;;;;;;3.15;2.13;;;;;;;;;;4824230;29;20058;-77
2021/01/28 14:07:17;;;;;;;2.47;1.60;;;;;;;;;;4819633;29;20490;-76
2021/01/28 14:09:43;;;;;;;3.40;1.75;;;;;;;;;;4814014;29;20054;-77
2021/01/28 14:12:09;;;;;;;2.88;1.50;;;;;;;;;;4835615;29;20421;-77
2021/01/28 14:14:37;;;;;;;2.70;1.50;;;;;;;;;;4832608;29;20058;-78
2021/01/28 14:17:03;;;;;;;3.47;1.85;;;;;;;;;;4832709;29;20077;-77
2021/01/28 14:19:32;;;;;;;2.50;1.67;;;;;;;;;;4824404;29;20068;-78
2021/01/28 14:22:01;;;;;;;2.63;1.70;;;;;;;;;;4836116;29;20161;-78
2021/01/28 14:24:47;;;;;;;2.00;1.23;;;;;;;;;;4828126;29;20062;-78
2021/01/28 14:27:13;;;;;;;3.42;1.83;;;;;;;;;;4811408;29;20089;-78
2021/01/28 14:29:42;;;;;;;2.78;1.52;;;;;;;;;;4834346;29;20052;-78
2021/01/28 14:32:08;;;;;;;3.17;1.70;;;;;;;;;;4841988;29;20106;-78
2021/01/28 14:34:35;;;;;;;3.55;1.77;;;;;;;;;;4838614;29;20057;-78
2021/01/28 14:37:01;;;;;;;4.43;1.75;;;;;;;;;;4838750;29;20061;-78
2021/01/28 14:39:27;;;;;;;3.38;1.90;;;;;;;;;;4834272;29;20060;-77
2021/01/28 14:41:53;;;;;;;2.75;1.42;;;;;;;;;;4834495;29;20060;-78
2021/01/28 14:44:20;;;;;;;2.67;1.48;;;;;;;;;;4830845;29;20062;-75
2021/01/28 14:46:46;;;;;;;2.20;1.75;;;;;;;;;;4830703;29;20052;-80
2021/01/28 14:49:12;;;;;;;2.35;1.60;;;;;;;;;;4827158;29;20050;-77
2021/01/28 14:51:47;;;;;;;2.53;1.27;;;;;;;;;;4829849;29;20059;-77
2021/01/28 14:54:14;;;;;;;2.15;1.27;;;;;;;;;;4839610;29;20060;-77
2021/01/28 14:56:46;;;;;;;2.47;1.65;;;;;;;;;;4840306;29;20065;-75
2021/01/28 14:59:13;;;;;;;2.35;1.60;;;;;;;;;;4829458;29;20482;-76
2021/01/28 15:01:39;;;;;;;2.08;1.40;;;;;;;;;;4831551;29;20056;-76
2021/01/28 15:04:13;;;;;;;2.92;1.58;;;;;;;;;;4832426;29;20054;-83
2021/01/28 15:06:42;;;;;;;2.75;1.70;;;;;;;;;;4826946;29;20046;-74
2021/01/28 15:09:08;;;;;;;2.87;1.27;;;;;;;;;;4831784;29;20046;-74
2021/01/28 15:11:36;;;;;;;3.15;1.63;;;;;;;;;;4832670;29;20392;-77
2021/01/28 15:14:03;;;;;;;2.75;1.75;;;;;;;;;;4830266;29;20073;-77
2021/01/28 15:16:30;;;;;;;3.15;1.63;;;;;;;;;;4834031;29;20109;-76
2021/01/28 15:18:57;;;;;;;2.30;1.60;;;;;;;;;;4834807;29;20439;-76
2021/01/28 15:21:24;;;;;;;2.97;1.58;;;;;;;;;;4831089;29;20050;-77
2021/01/28 15:23:51;;;;;;;3.30;1.60;;;;;;;;;;4831628;29;20054;-76